Time;durP1;ratioP1;P1;durP2;ratioP2;P2;SDS_P1;SDS_P2;PMS_P1;PMS_P2;Temp;Humidity;BMP_temperature;BMP_pressure;BME280_temperature;BME280_humidity;BME280_pressure;Samples;Min_cycle;Max_cycle;Signal;HPM_P1;HPM_P2
2022/10/15 00:01:28;;;;;;;5.40;4.28;;;;;;;14.41;55.82;100378.63;5029832;28;20506;-68
2022/10/15 00:03:56;;;;;;;6.85;4.80;;;;;;;14.39;55.95;100382.41;5029649;28;20053;-68
2022/10/15 00:06:24;;;;;;;6.32;4.60;;;;;;;14.38;55.49;100374.31;5030723;28;20056;-69
2022/10/15 00:08:53;;;;;;;5.78;4.32;;;;;;;14.39;56.05;100381.56;5031725;28;20038;-69
2022/10/15 00:11:24;;;;;;;5.88;4.13;;;;;;;14.37;55.65;100381.72;5018809;28;20099;-69
2022/10/15 00:13:54;;;;;;;5.22;3.92;;;;;;;14.37;56.00;100375.34;5035200;28;20038;-68
2022/10/15 00:16:24;;;;;;;6.40;4.47;;;;;;;14.35;55.93;100375.53;5033166;28;20388;-69
2022/10/15 00:18:55;;;;;;;6.55;4.45;;;;;;;14.36;56.00;100371.75;5030782;28;20502;-69
2022/10/15 00:21:24;;;;;;;5.78;4.00;;;;;;;14.33;55.91;100368.50;5045411;28;20140;-68
2022/10/15 00:23:53;;;;;;;6.15;4.45;;;;;;;14.34;55.60;100367.47;5030671;28;20057;-69
2022/10/15 00:26:23;;;;;;;6.25;4.18;;;;;;;14.31;55.47;100354.88;5029692;28;20041;-69
2022/10/15 00:28:53;;;;;;;5.00;3.78;;;;;;;14.31;55.87;100365.03;5029665;28;20129;-69
2022/10/15 00:31:25;;;;;;;6.00;3.92;;;;;;;14.28;55.33;100360.72;5022801;28;20042;-68
2022/10/15 00:33:56;;;;;;;5.55;4.25;;;;;;;14.29;55.98;100356.94;5028957;28;20030;-68
2022/10/15 00:36:26;;;;;;;5.40;3.95;;;;;;;14.27;55.32;100356.25;5028239;28;20050;-69
2022/10/15 00:38:55;;;;;;;5.53;3.72;;;;;;;14.27;55.68;100359.00;5029643;28;20217;-68
2022/10/15 00:41:27;;;;;;;5.05;3.47;;;;;;;14.25;55.91;100362.97;5022788;28;20077;-68
2022/10/15 00:43:56;;;;;;;6.07;3.95;;;;;;;14.25;55.58;100360.22;5043684;28;20052;-68
2022/10/15 00:46:28;;;;;;;6.50;4.57;;;;;;;14.25;55.61;100365.72;5012092;28;20491;-68
2022/10/15 00:48:59;;;;;;;5.17;3.93;;;;;;;14.22;55.45;100363.31;5030393;28;20431;-68
2022/10/15 00:51:33;;;;;;;5.82;3.85;;;;;;;14.23;56.01;100354.88;5012753;28;20060;-68
2022/10/15 00:54:02;;;;;;;7.38;4.10;;;;;;;14.23;55.48;100343.00;5032613;28;20044;-68
2022/10/15 00:56:32;;;;;;;5.65;4.13;;;;;;;14.21;55.29;100348.69;5004367;28;20053;-69
2022/10/15 00:59:01;;;;;;;5.20;3.90;;;;;;;14.20;55.32;100349.69;5027067;28;20519;-69
2022/10/15 01:01:29;;;;;;;4.47;3.38;;;;;;;14.20;55.30;100349.69;5023159;28;20041;-69
2022/10/15 01:03:58;;;;;;;4.78;3.60;;;;;;;14.19;55.95;100349.91;5024257;28;20492;-68
2022/10/15 01:06:26;;;;;;;5.88;3.75;;;;;;;14.19;55.49;100353.47;5000267;28;20099;-68
2022/10/15 01:08:55;;;;;;;5.88;3.75;;;;;;;14.18;55.85;100350.94;5022544;28;20065;-68
2022/10/15 01:11:40;;;;;;;5.32;3.67;;;;;;;14.18;55.47;100351.78;5021074;28;20056;-68
2022/10/15 01:14:28;;;;;;;5.47;3.60;;;;;;;14.18;55.86;100356.44;5025072;28;20046;-69
2022/10/15 01:17:04;;;;;;;5.20;3.50;;;;;;;14.18;55.79;100370.19;4997667;28;20496;-69
2022/10/15 01:19:57;;;;;;;5.00;3.53;;;;;;;14.19;55.56;100369.16;5025743;28;20049;-68
2022/10/15 01:22:42;;;;;;;6.28;3.92;;;;;;;14.16;55.79;100364.00;5035384;28;20048;-69
2022/10/15 01:25:21;;;;;;;5.68;3.97;;;;;;;14.17;55.30;100366.56;5027093;28;20383;-69
2022/10/15 01:27:54;;;;;;;5.90;4.10;;;;;;;14.16;55.80;100369.50;5027146;28;20072;-69
2022/10/15 01:30:34;;;;;;;5.50;3.88;;;;;;;14.16;55.42;100367.59;5018950;28;20049;-69
2022/10/15 01:33:28;;;;;;;4.78;3.30;;;;;;;14.11;55.90;100375.47;5026550;28;20064;-69
2022/10/15 01:36:07;;;;;;;5.50;3.78;;;;;;;14.11;55.69;100375.47;5019926;28;20041;-68
2022/10/15 01:38:51;;;;;;;4.93;3.30;;;;;;;14.13;55.73;100376.19;5038157;28;20117;-69
2022/10/15 01:41:26;;;;;;;5.80;3.80;;;;;;;14.11;55.82;100369.97;5021386;28;20522;-69
2022/10/15 01:44:01;;;;;;;4.97;3.58;;;;;;;14.11;55.37;100372.72;5036413;28;20447;-70
2022/10/15 01:46:53;;;;;;;5.30;3.67;;;;;;;14.08;55.54;100375.84;5020352;28;20051;-68
2022/10/15 01:49:27;;;;;;;5.32;3.75;;;;;;;14.09;55.43;100373.97;5026950;28;20049;-69
2022/10/15 01:51:58;;;;;;;6.13;3.83;;;;;;;14.08;55.65;100369.47;5041099;28;20117;-68
2022/10/15 01:54:30;;;;;;;6.03;4.03;;;;;;;14.07;55.57;100365.00;5043559;28;20696;-69
2022/10/15 01:56:59;;;;;;;6.85;4.25;;;;;;;14.06;55.44;100353.13;5000936;28;20080;-69
2022/10/15 01:59:31;;;;;;;5.93;3.65;;;;;;;14.05;55.06;100356.91;5024825;28;20087;-69
2022/10/15 02:02:01;;;;;;;4.95;3.70;;;;;;;14.04;55.01;100351.56;5018686;28;20045;-69
2022/10/15 02:04:31;;;;;;;5.40;3.42;;;;;;;14.02;55.03;100347.09;5025675;28;20125;-68
2022/10/15 02:07:04;;;;;;;4.70;3.17;;;;;;;14.02;55.30;100344.34;5043965;28;20042;-68
2022/10/15 02:09:42;;;;;;;6.93;4.43;;;;;;;14.02;54.99;100350.91;5043397;28;20045;-69
2022/10/15 02:12:31;;;;;;;5.68;3.38;;;;;;;14.00;55.46;100351.94;5019497;28;20471;-68
2022/10/15 02:15:06;;;;;;;5.95;3.80;;;;;;;13.97;55.39;100355.00;5017630;28;20053;-68
2022/10/15 02:17:42;;;;;;;5.32;3.90;;;;;;;13.99;55.40;100352.09;5021475;28;20049;-68
2022/10/15 02:20:15;;;;;;;5.85;3.55;;;;;;;13.96;55.03;100353.28;4996103;28;20041;-68
2022/10/15 02:22:48;;;;;;;5.88;3.80;;;;;;;13.94;54.94;100346.25;5014114;28;20496;-68
2022/10/15 02:25:21;;;;;;;4.93;3.78;;;;;;;13.93;55.04;100342.63;4993873;28;20034;-68
2022/10/15 02:27:52;;;;;;;7.00;3.80;;;;;;;13.91;55.54;100344.69;5032960;28;20042;-68
2022/10/15 02:30:21;;;;;;;6.28;4.10;;;;;;;13.90;55.47;100342.09;5017196;28;20037;-68
2022/10/15 02:32:54;;;;;;;5.22;3.75;;;;;;;13.92;55.03;100353.81;5018082;28;20077;-68
2022/10/15 02:35:23;;;;;;;7.13;3.75;;;;;;;13.88;55.38;100356.00;5020813;28;20030;-68
2022/10/15 02:37:54;;;;;;;5.55;3.38;;;;;;;13.89;55.05;100360.50;5021404;28;20095;-68
2022/10/15 02:40:26;;;;;;;6.70;3.60;;;;;;;13.88;55.81;100356.00;5019388;28;20477;-68
2022/10/15 02:42:55;;;;;;;;;;;;;;;13.61;56.20;100364.53;5018489;28;20080;-68
2022/10/15 02:45:23;;;;;;;5.43;3.30;;;;;;;13.83;55.37;100360.31;5026726;28;20019;-68
2022/10/15 02:47:52;;;;;;;6.45;3.90;;;;;;;13.89;55.06;100356.88;5025185;28;20563;-68
2022/10/15 02:50:20;;;;;;;5.70;3.90;;;;;;;13.86;55.56;100357.22;5027261;28;20060;-68
2022/10/15 02:52:52;;;;;;;5.28;3.80;;;;;;;13.85;55.51;100359.13;5030729;28;20047;-68
2022/10/15 02:55:20;;;;;;;5.85;3.83;;;;;;;13.86;55.19;100348.97;5045335;28;20496;-68
2022/10/15 02:57:48;;;;;;;4.65;3.58;;;;;;;13.85;55.10;100344.50;5031371;28;20168;-68
2022/10/15 03:00:17;;;;;;;5.43;3.55;;;;;;;13.85;55.76;100359.13;5028401;28;20395;-68
2022/10/15 03:02:48;;;;;;;5.35;4.00;;;;;;;13.82;55.92;100367.69;5021707;28;20630;-68
2022/10/15 03:05:19;;;;;;;6.15;3.47;;;;;;;13.86;55.75;100360.81;5027847;28;20056;-68
2022/10/15 03:07:47;;;;;;;5.88;3.67;;;;;;;13.86;55.79;100351.72;5036156;28;20049;-68
2022/10/15 03:10:16;;;;;;;6.85;3.97;;;;;;;13.86;55.48;100341.56;5025831;28;20034;-68
2022/10/15 03:12:44;;;;;;;6.32;3.63;;;;;;;13.86;55.39;100335.22;5045806;28;20073;-68
2022/10/15 03:15:13;;;;;;;5.50;3.78;;;;;;;13.88;55.95;100344.16;4999990;28;20044;-68
2022/10/15 03:17:43;;;;;;;5.55;3.47;;;;;;;13.88;55.55;100342.25;5011334;28;20508;-68
2022/10/15 03:20:11;;;;;;;7.00;4.13;;;;;;;13.88;56.06;100339.50;5043153;28;20042;-69
2022/10/15 03:22:41;;;;;;;5.93;3.53;;;;;;;13.91;55.55;100338.31;5023786;28;20095;-69
2022/10/15 03:25:09;;;;;;;7.50;3.70;;;;;;;13.90;55.54;100334.72;5028963;28;20083;-69
2022/10/15 03:27:38;;;;;;;4.88;3.42;;;;;;;13.91;55.90;100324.56;5023438;28;20508;-68
2022/10/15 03:30:18;;;;;;;5.97;3.47;;;;;;;13.92;55.69;100318.03;5027901;28;20484;-69
2022/10/15 03:32:47;;;;;;;4.95;3.65;;;;;;;13.92;55.57;100323.53;5033899;28;20056;-68
2022/10/15 03:35:15;;;;;;;5.88;3.30;;;;;;;13.93;55.81;100325.25;5022297;28;20044;-69
2022/10/15 03:37:45;;;;;;;5.47;3.42;;;;;;;13.95;55.87;100321.28;5034527;28;20061;-68
2022/10/15 03:40:13;;;;;;;5.00;3.60;;;;;;;13.94;55.84;100316.00;5023353;28;20069;-68
2022/10/15 03:42:43;;;;;;;5.93;3.58;;;;;;;13.95;55.92;100324.03;5029362;28;20048;-69
2022/10/15 03:45:12;;;;;;;4.97;3.28;;;;;;;13.96;55.87;100324.91;5020507;28;20081;-68
2022/10/15 03:47:40;;;;;;;5.90;3.90;;;;;;;13.97;55.61;100322.00;5029897;28;20507;-69
2022/10/15 03:50:08;;;;;;;5.78;3.25;;;;;;;13.98;55.54;100320.97;5025900;28;20044;-69
2022/10/15 03:52:37;;;;;;;6.93;3.70;;;;;;;13.98;55.41;100309.97;5031077;28;20499;-68
2022/10/15 03:55:08;;;;;;;4.70;3.33;;;;;;;14.01;55.50;100311.53;5028421;28;20087;-69
2022/10/15 03:57:37;;;;;;;5.47;3.35;;;;;;;14.00;56.08;100315.28;5025609;28;20045;-68
2022/10/15 04:00:08;;;;;;;5.93;3.42;;;;;;;14.02;55.79;100317.88;5024012;28;20033;-69
2022/10/15 04:02:39;;;;;;;5.40;3.60;;;;;;;14.03;55.58;100325.94;5029653;28;20508;-69
2022/10/15 04:05:18;;;;;;;5.95;3.75;;;;;;;14.02;55.51;100324.25;5044293;28;20064;-69
2022/10/15 04:07:52;;;;;;;5.13;3.90;;;;;;;14.04;55.50;100329.56;5030487;28;20065;-68
2022/10/15 04:10:23;;;;;;;5.43;3.97;;;;;;;14.05;55.40;100329.41;5025274;28;20033;-68
2022/10/15 04:12:50;;;;;;;6.93;4.10;;;;;;;14.05;55.47;100332.16;5029086;28;20169;-68
2022/10/15 04:15:19;;;;;;;5.93;3.70;;;;;;;14.07;56.01;100323.72;5002283;28;20057;-69
2022/10/15 04:17:55;;;;;;;5.70;3.95;;;;;;;14.06;55.45;100330.25;5015167;28;20048;-68
2022/10/15 04:20:26;;;;;;;5.45;3.88;;;;;;;14.08;55.48;100333.72;5019910;28;20104;-68
2022/10/15 04:22:58;;;;;;;6.82;4.40;;;;;;;14.05;55.46;100332.16;5044596;28;20045;-68
2022/10/15 04:25:29;;;;;;;6.63;5.03;;;;;;;14.09;55.38;100340.94;5027543;28;20500;-68
2022/10/15 04:27:56;;;;;;;7.75;4.57;;;;;;;14.08;55.47;100337.31;5042741;28;20049;-68
2022/10/15 04:30:25;;;;;;;6.38;4.53;;;;;;;14.10;55.96;100350.91;5021719;28;21053;-68
2022/10/15 04:32:58;;;;;;;7.43;4.72;;;;;;;14.10;55.82;100342.66;5028306;28;20064;-68
2022/10/15 04:35:26;;;;;;;6.93;4.57;;;;;;;14.11;55.44;100347.97;5024516;28;20459;-69
2022/10/15 04:38:07;;;;;;;6.25;4.38;;;;;;;14.10;55.98;100346.28;5028803;28;20057;-68
2022/10/15 04:41:01;;;;;;;6.93;4.68;;;;;;;14.12;55.71;100344.19;5019906;28;20072;-68
2022/10/15 04:43:41;;;;;;;8.32;5.18;;;;;;;14.10;55.40;100343.53;5027233;28;20049;-69
2022/10/15 04:46:11;;;;;;;7.38;4.85;;;;;;;14.12;55.85;100348.84;5040054;28;20045;-68
2022/10/15 04:48:39;;;;;;;7.20;5.20;;;;;;;14.14;55.47;100346.78;5028069;28;20069;-69
2022/10/15 04:51:15;;;;;;;7.18;4.93;;;;;;;14.13;55.54;100334.91;5023567;28;20042;-69
2022/10/15 04:54:01;;;;;;;7.40;5.03;;;;;;;14.12;55.79;100330.44;5015062;28;20041;-69
2022/10/15 04:56:32;;;;;;;6.25;4.70;;;;;;;14.15;55.40;100330.09;5027280;28;20077;-69
2022/10/15 04:59:01;;;;;;;6.78;4.95;;;;;;;14.14;55.36;100327.50;5023254;28;20091;-69
2022/10/15 05:01:32;;;;;;;8.15;4.75;;;;;;;14.12;55.71;100313.06;5038673;28;20132;-69
2022/10/15 05:04:10;;;;;;;7.32;4.93;;;;;;;14.12;55.16;100313.91;5023153;28;20066;-68
2022/10/15 05:06:42;;;;;;;7.82;4.93;;;;;;;14.13;55.35;100312.03;5006474;28;20055;-68
2022/10/15 05:09:17;;;;;;;8.02;4.97;;;;;;;14.10;55.26;100302.25;5028592;28;20132;-67
2022/10/15 05:11:52;;;;;;;6.75;5.15;;;;;;;14.10;55.50;100310.50;5037320;28;20133;-68
2022/10/15 05:14:20;;;;;;;7.20;4.55;;;;;;;14.09;55.18;100299.66;5028672;28;20053;-68
2022/10/15 05:17:03;;;;;;;6.60;4.43;;;;;;;14.07;55.45;100315.47;5025136;28;20045;-68
2022/10/15 05:19:37;;;;;;;6.63;4.35;;;;;;;14.07;55.16;100320.97;5041924;28;20092;-68
2022/10/15 05:22:08;;;;;;;6.68;4.75;;;;;;;14.06;55.59;100314.59;5025803;28;20490;-68
2022/10/15 05:24:43;;;;;;;6.97;4.80;;;;;;;14.06;55.28;100319.25;5036971;28;20041;-68
2022/10/15 05:27:20;;;;;;;7.30;5.07;;;;;;;14.06;55.84;100317.38;4994364;28;20555;-68
2022/10/15 05:29:48;;;;;;;7.30;5.35;;;;;;;14.06;55.45;100322.00;5042961;28;20041;-68
2022/10/15 05:32:16;;;;;;;7.60;4.82;;;;;;;14.05;55.50;100326.66;5020124;28;20668;-68
2022/10/15 05:34:44;;;;;;;6.60;4.68;;;;;;;14.05;55.93;100334.91;5042793;28;20037;-68
2022/10/15 05:37:15;;;;;;;7.30;4.38;;;;;;;14.06;55.35;100341.25;5024726;28;20378;-68
2022/10/15 05:39:43;;;;;;;6.82;4.88;;;;;;;14.05;55.46;100337.66;5026713;28;20045;-68
2022/10/15 05:42:11;;;;;;;6.72;4.50;;;;;;;14.07;55.74;100338.34;5023686;28;20038;-68
2022/10/15 05:44:47;;;;;;;6.68;4.57;;;;;;;14.09;55.46;100343.69;5024248;28;20115;-68
2022/10/15 05:47:16;;;;;;;6.80;4.78;;;;;;;14.07;55.67;100343.84;5021727;28;20069;-68
2022/10/15 05:49:44;;;;;;;7.20;4.70;;;;;;;14.08;55.53;100333.72;5027230;28;20391;-68
2022/10/15 05:52:27;;;;;;;6.53;4.45;;;;;;;14.08;55.71;100336.47;5027236;28;20049;-68
2022/10/15 05:55:34;;;;;;;6.47;5.05;;;;;;;14.06;55.41;100335.75;5008727;28;20049;-68
2022/10/15 05:58:03;;;;;;;7.97;4.80;;;;;;;14.08;55.50;100341.97;5028049;28;20042;-68
2022/10/15 06:00:32;;;;;;;7.47;5.30;;;;;;;14.10;55.96;100331.66;5023459;28;20042;-68
2022/10/15 06:03:00;;;;;;;6.50;4.95;;;;;;;14.09;55.53;100335.44;5023575;28;20045;-68
2022/10/15 06:05:29;;;;;;;8.20;5.70;;;;;;;14.09;55.60;100344.56;5027055;28;20044;-68
2022/10/15 06:07:57;;;;;;;7.60;5.15;;;;;;;14.09;55.82;100344.56;5029447;28;20045;-68
2022/10/15 06:10:27;;;;;;;8.82;5.70;;;;;;;14.09;55.36;100343.69;5023472;28;20072;-68
2022/10/15 06:12:55;;;;;;;6.53;4.88;;;;;;;14.09;55.63;100335.44;5026285;28;20500;-68
2022/10/15 06:15:23;;;;;;;7.72;5.65;;;;;;;14.10;55.84;100332.50;5003306;28;20049;-68
2022/10/15 06:17:53;;;;;;;8.13;5.28;;;;;;;14.12;55.34;100344.19;5027554;28;20055;-68
2022/10/15 06:20:21;;;;;;;8.88;5.65;;;;;;;14.10;55.84;100349.03;5016933;28;20042;-68
2022/10/15 06:22:50;;;;;;;8.52;6.22;;;;;;;14.10;55.36;100349.03;5020330;28;20124;-68
2022/10/15 06:25:18;;;;;;;8.98;5.93;;;;;;;14.11;55.39;100349.84;5024117;28;20042;-68
2022/10/15 06:27:46;;;;;;;7.75;5.97;;;;;;;14.12;55.90;100357.09;5026575;28;20496;-68
2022/10/15 06:30:14;;;;;;;7.75;6.03;;;;;;;14.11;55.78;100355.34;5018363;28;20050;-69
2022/10/15 06:32:47;;;;;;;8.18;5.78;;;;;;;14.13;55.55;100367.94;5023052;28;20618;-68
2022/10/15 06:35:18;;;;;;;8.55;6.22;;;;;;;14.13;55.86;100365.19;4998922;28;20156;-69
2022/10/15 06:37:46;;;;;;;8.63;6.07;;;;;;;14.13;55.41;100364.31;5040625;28;20124;-69
2022/10/15 06:40:15;;;;;;;9.68;6.22;;;;;;;14.14;55.63;100368.78;5023776;28;20033;-68
2022/10/15 06:42:43;;;;;;;8.15;5.90;;;;;;;14.13;55.86;100365.19;5027867;28;20041;-68
2022/10/15 06:45:12;;;;;;;7.15;5.78;;;;;;;14.16;55.80;100364.00;4994601;28;20125;-68
2022/10/15 06:47:45;;;;;;;8.65;5.68;;;;;;;14.14;55.50;100357.78;5037265;28;20045;-69
2022/10/15 06:50:13;;;;;;;8.43;5.78;;;;;;;14.16;55.85;100364.00;5000785;28;20061;-69
2022/10/15 06:52:43;;;;;;;7.55;5.60;;;;;;;14.18;55.36;100367.44;5026816;28;20423;-71
2022/10/15 06:55:11;;;;;;;8.90;6.65;;;;;;;14.16;55.48;100362.09;5030443;28;20093;-70
2022/10/15 06:57:39;;;;;;;8.70;7.03;;;;;;;14.18;55.95;100367.44;5040966;28;20479;-68
2022/10/15 07:00:08;;;;;;;9.00;6.68;;;;;;;14.19;55.63;100364.50;5026759;28;20040;-68
2022/10/15 07:02:36;;;;;;;9.32;7.07;;;;;;;14.20;55.49;100365.34;5027871;28;20032;-68
2022/10/15 07:05:05;;;;;;;9.95;7.32;;;;;;;14.22;56.10;100374.31;5026886;28;20053;-69
2022/10/15 07:07:33;;;;;;;10.68;7.32;;;;;;;14.23;55.69;100376.91;5027060;28;20496;-68
2022/10/15 07:10:02;;;;;;;9.35;7.38;;;;;;;14.26;55.78;100371.06;5020038;28;20041;-69
2022/10/15 07:12:31;;;;;;;11.35;8.00;;;;;;;14.26;55.61;100373.81;5023646;28;20042;-69
2022/10/15 07:14:59;;;;;;;10.15;7.53;;;;;;;14.28;55.93;100376.38;5023060;28;20044;-69
2022/10/15 07:17:30;;;;;;;11.15;7.30;;;;;;;14.31;55.93;100370.53;4996750;28;20531;-69
2022/10/15 07:19:58;;;;;;;11.13;7.78;;;;;;;14.32;55.71;100358.50;5024007;28;20045;-69
2022/10/15 07:22:26;;;;;;;10.02;7.38;;;;;;;14.35;55.94;100361.75;5017505;28;20377;-69
2022/10/15 07:24:54;;;;;;;9.98;6.97;;;;;;;14.41;56.24;100364.88;5028449;28;20045;-69
2022/10/15 07:27:23;;;;;;;10.40;7.38;;;;;;;14.49;56.09;100357.50;5021064;28;20045;-69
2022/10/15 07:29:52;;;;;;;9.13;6.30;;;;;;;14.55;56.69;100354.06;5024300;28;20041;-69
2022/10/15 07:32:20;;;;;;;8.07;5.65;;;;;;;14.63;55.93;100355.94;5025388;28;20033;-70
2022/10/15 07:34:49;;;;;;;7.85;5.78;;;;;;;14.69;56.15;100349.75;5026777;28;20041;-69
2022/10/15 07:37:17;;;;;;;7.35;5.32;;;;;;;14.74;55.99;100358.38;5001846;28;20082;-70
2022/10/15 07:39:45;;;;;;;7.65;4.90;;;;;;;14.80;55.50;100357.66;5025069;28;20295;-69
2022/10/15 07:42:13;;;;;;;7.72;4.93;;;;;;;14.85;55.98;100368.19;5020824;28;20034;-70
2022/10/15 07:44:42;;;;;;;8.27;5.15;;;;;;;14.90;55.49;100352.84;5015383;28;20745;-69
2022/10/15 07:47:10;;;;;;;7.20;4.75;;;;;;;14.93;55.31;100354.38;5026161;28;20475;-69
2022/10/15 07:49:38;;;;;;;6.38;4.78;;;;;;;14.95;55.17;100355.91;5024140;28;20045;-70
2022/10/15 07:52:07;;;;;;;7.30;4.70;;;;;;;14.98;55.15;100350.06;5011724;28;20147;-69
2022/10/15 07:54:36;;;;;;;6.47;5.00;;;;;;;15.00;55.32;100345.25;5030687;28;20465;-70
2022/10/15 07:57:05;;;;;;;7.57;5.20;;;;;;;15.03;55.24;100335.75;5027672;28;20113;-70
2022/10/15 07:59:34;;;;;;;7.60;5.20;;;;;;;15.04;54.93;100338.31;5025000;28;20048;-70
2022/10/15 08:02:04;;;;;;;6.50;4.30;;;;;;;15.08;54.94;100330.56;4996550;28;20046;-70
2022/10/15 08:04:33;;;;;;;6.95;4.70;;;;;;;15.07;55.02;100346.25;5024502;28;20682;-70
2022/10/15 08:07:01;;;;;;;6.45;4.90;;;;;;;15.09;54.87;100344.16;5023929;28;20044;-70
2022/10/15 08:09:34;;;;;;;6.20;4.55;;;;;;;15.11;55.29;100332.97;5030409;28;20041;-70
2022/10/15 08:12:03;;;;;;;6.25;4.18;;;;;;;15.12;55.13;100326.41;5023728;28;20476;-70
2022/10/15 08:14:31;;;;;;;5.90;3.97;;;;;;;15.14;54.81;100327.97;5029557;28;20499;-70
2022/10/15 08:17:00;;;;;;;4.97;3.42;;;;;;;15.18;54.68;100333.13;5020070;28;20038;-69
2022/10/15 08:19:30;;;;;;;5.18;3.47;;;;;;;15.21;54.82;100335.53;5029594;28;20307;-69
2022/10/15 08:21:58;;;;;;;5.55;3.50;;;;;;;15.21;54.41;100330.00;5023668;28;20045;-69
2022/10/15 08:24:27;;;;;;;5.85;3.30;;;;;;;15.23;54.42;100330.69;5031051;28;20345;-70
2022/10/15 08:26:55;;;;;;;4.85;3.17;;;;;;;15.24;54.23;100336.03;5012874;28;20056;-70
2022/10/15 08:29:23;;;;;;;5.22;3.45;;;;;;;15.23;54.33;100333.47;5031105;28;20101;-69
2022/10/15 08:31:51;;;;;;;4.95;3.08;;;;;;;15.24;54.64;100330.53;5024853;28;20049;-70
2022/10/15 08:34:23;;;;;;;4.40;3.05;;;;;;;15.23;54.46;100333.47;5025872;28;20111;-69
2022/10/15 08:36:52;;;;;;;5.13;2.40;;;;;;;15.28;54.66;100331.00;5021185;28;20500;-69
2022/10/15 08:39:20;;;;;;;3.83;2.85;;;;;;;15.27;54.27;100338.41;5024071;28;20042;-69
2022/10/15 08:41:52;;;;;;;4.70;2.80;;;;;;;15.30;54.22;100329.81;5024695;28;20069;-69
2022/10/15 08:44:25;;;;;;;3.83;2.40;;;;;;;15.31;54.69;100333.44;5027105;28;20072;-69
2022/10/15 08:46:56;;;;;;;;;;;;;;;15.03;54.85;100322.81;5025475;28;20042;-70
2022/10/15 08:49:35;;;;;;;3.92;2.25;;;;;;;15.31;54.68;100317.75;5026369;28;20388;-70
2022/10/15 08:52:14;;;;;;;3.75;2.03;;;;;;;15.36;54.56;100309.81;5025156;28;20103;-70
2022/10/15 08:54:43;;;;;;;3.08;2.10;;;;;;;15.36;54.51;100309.81;5038702;28;20046;-70
2022/10/15 08:57:36;;;;;;;3.35;2.08;;;;;;;15.40;54.00;100304.81;5018172;28;20121;-70
2022/10/15 09:00:11;;;;;;;3.05;1.70;;;;;;;15.42;54.27;100316.53;5021541;28;20041;-70
2022/10/15 09:02:50;;;;;;;3.78;2.00;;;;;;;15.47;54.14;100314.09;5023596;28;20068;-69
2022/10/15 09:05:30;;;;;;;2.58;1.70;;;;;;;15.50;54.05;100319.25;5026349;28;20124;-69
2022/10/15 09:08:06;;;;;;;2.88;1.70;;;;;;;15.52;54.01;100308.88;5030006;28;20069;-70
2022/10/15 09:10:41;;;;;;;2.92;1.70;;;;;;;15.56;53.87;100317.66;5020959;28;20057;-70
2022/10/15 09:13:13;;;;;;;3.28;1.65;;;;;;;15.58;53.91;100324.75;5030034;28;20045;-70
2022/10/15 09:15:50;;;;;;;6.30;2.10;;;;;;;15.61;53.72;100313.31;5024467;28;20037;-70
2022/10/15 09:18:22;;;;;;;4.32;2.00;;;;;;;15.62;53.56;100309.53;5029670;28;20076;-70
2022/10/15 09:20:51;;;;;;;3.20;1.75;;;;;;;15.62;53.90;100308.66;5029035;28;20099;-69
2022/10/15 09:23:23;;;;;;;2.95;1.52;;;;;;;15.67;53.80;100309.84;5022676;28;20116;-69
2022/10/15 09:25:58;;;;;;;3.07;1.70;;;;;;;15.68;53.87;100307.94;5024976;28;20499;-70
2022/10/15 09:28:33;;;;;;;2.55;1.60;;;;;;;15.70;53.51;100303.97;5027321;28;20376;-70
2022/10/15 09:31:02;;;;;;;2.72;1.52;;;;;;;15.69;53.55;100305.00;4995316;28;20500;-68
2022/10/15 09:33:37;;;;;;;2.70;1.50;;;;;;;15.75;53.59;100296.03;5017531;28;20041;-69
2022/10/15 09:36:31;;;;;;;2.00;1.20;;;;;;;15.74;53.45;100304.47;5026086;28;20049;-69
2022/10/15 09:39:12;;;;;;;2.53;1.35;;;;;;;15.77;53.36;100302.19;5031140;28;20030;-69
2022/10/15 09:41:53;;;;;;;1.80;1.10;;;;;;;15.78;53.42;100292.00;5003268;28;20052;-69
2022/10/15 09:44:24;;;;;;;2.38;1.27;;;;;;;15.79;54.03;100289.09;5024039;28;20526;-69
2022/10/15 09:46:52;;;;;;;1.52;1.00;;;;;;;15.79;53.98;100294.59;5023486;28;20128;-70
2022/10/15 09:49:24;;;;;;;2.05;1.20;;;;;;;15.85;54.04;100291.09;5031243;28;20045;-69
2022/10/15 09:52:01;;;;;;;2.58;1.38;;;;;;;15.88;53.87;100284.38;5028198;28;20049;-69
2022/10/15 09:54:39;;;;;;;3.40;1.30;;;;;;;15.91;53.82;100284.03;5029004;28;20379;-70
2022/10/15 09:57:10;;;;;;;1.77;1.10;;;;;;;15.94;53.68;100289.16;5026175;28;20099;-69
2022/10/15 09:59:38;;;;;;;2.20;1.13;;;;;;;15.98;53.91;100284.13;5023326;28;20038;-69
2022/10/15 10:02:19;;;;;;;1.85;1.00;;;;;;;16.03;53.47;100279.78;5021991;28;20041;-69
2022/10/15 10:04:47;;;;;;;1.98;1.05;;;;;;;16.05;53.85;100282.34;5043948;28;20393;-70
2022/10/15 10:07:32;;;;;;;1.98;1.10;;;;;;;16.13;53.76;100280.38;5020599;28;20117;-69
2022/10/15 10:10:07;;;;;;;1.73;1.08;;;;;;;16.18;53.58;100285.38;5026050;28;20096;-69
2022/10/15 10:12:37;;;;;;;2.30;1.15;;;;;;;16.24;54.20;100295.72;5020766;28;20085;-70
2022/10/15 10:15:08;;;;;;;1.90;1.13;;;;;;;16.28;53.80;100272.19;5026752;28;20037;-70
2022/10/15 10:17:36;;;;;;;1.73;0.93;;;;;;;16.31;54.08;100269.06;5024176;28;20068;-69
2022/10/15 10:20:15;;;;;;;1.70;0.90;;;;;;;16.38;53.72;100272.78;5026471;28;20479;-70
2022/10/15 10:22:45;;;;;;;2.13;1.02;;;;;;;16.39;53.59;100257.94;5021574;28;20056;-71
2022/10/15 10:25:39;;;;;;;1.83;1.02;;;;;;;16.41;53.84;100260.53;5028010;28;20497;-70
2022/10/15 10:28:17;;;;;;;1.25;0.75;;;;;;;16.45;53.58;100265.47;5026324;28;20041;-70
2022/10/15 10:30:52;;;;;;;1.92;1.05;;;;;;;16.47;53.55;100268.91;5026967;28;20213;-70
2022/10/15 10:33:29;;;;;;;2.00;1.10;;;;;;;16.49;53.76;100261.31;5019939;28;20500;-70
2022/10/15 10:35:59;;;;;;;1.38;0.88;;;;;;;16.50;53.54;100264.91;5025119;28;20037;-70
2022/10/15 10:38:31;;;;;;;2.22;0.90;;;;;;;16.51;53.81;100273.00;5029028;28;20045;-70
2022/10/15 10:41:06;;;;;;;2.15;1.00;;;;;;;16.50;54.16;100264.91;5020854;28;20041;-70
2022/10/15 10:43:36;;;;;;;1.38;0.80;;;;;;;16.52;53.81;100255.38;5028085;28;20124;-69
2022/10/15 10:46:17;;;;;;;1.63;0.90;;;;;;;16.52;54.02;100249.88;5028047;28;20038;-68
2022/10/15 10:48:49;;;;;;;1.05;0.88;;;;;;;16.50;54.19;100254.72;5030192;28;20451;-68
2022/10/15 10:51:19;;;;;;;1.58;0.90;;;;;;;16.51;53.74;100250.91;5017971;28;20459;-69
2022/10/15 10:53:56;;;;;;;1.77;1.10;;;;;;;16.52;53.82;100251.75;5028678;28;20041;-69
2022/10/15 10:56:30;;;;;;;1.45;0.68;;;;;;;16.52;53.63;100257.28;5025673;28;20054;-69
2022/10/15 10:59:03;;;;;;;1.38;0.90;;;;;;;16.50;54.14;100256.59;5021969;28;20621;-69
2022/10/15 11:01:32;;;;;;;1.65;0.88;;;;;;;16.47;53.86;100255.09;5024891;28;20041;-69
2022/10/15 11:04:01;;;;;;;2.17;1.08;;;;;;;16.48;54.29;100262.34;5036994;28;20046;-69
2022/10/15 11:06:50;;;;;;;1.85;0.80;;;;;;;16.50;54.19;100253.84;5024397;28;20061;-69
2022/10/15 11:09:40;;;;;;;1.40;0.90;;;;;;;16.49;54.30;100249.41;5026333;28;20497;-69
2022/10/15 11:12:30;;;;;;;1.60;1.00;;;;;;;16.51;54.20;100263.84;5028521;28;20046;-68
2022/10/15 11:15:15;;;;;;;2.25;0.93;;;;;;;16.49;54.37;100250.25;5043565;28;20095;-69
2022/10/15 11:17:51;;;;;;;1.67;0.95;;;;;;;16.50;54.77;100259.38;5032069;28;20073;-69
2022/10/15 11:20:29;;;;;;;1.63;1.05;;;;;;;16.50;54.87;100253.84;5031226;28;20066;-69
2022/10/15 11:23:32;;;;;;;1.63;0.90;;;;;;;16.50;54.62;100259.38;5031596;28;20116;-69
2022/10/15 11:26:10;;;;;;;2.05;1.15;;;;;;;16.51;54.41;100253.66;5031722;28;20049;-69
2022/10/15 11:28:54;;;;;;;1.77;0.93;;;;;;;16.52;54.71;100241.56;5028373;28;20075;-69
2022/10/15 11:31:29;;;;;;;1.77;1.10;;;;;;;16.52;55.15;100235.19;5031777;28;20484;-69
2022/10/15 11:34:25;;;;;;;2.58;1.00;;;;;;;16.52;55.04;100230.53;5021580;28;20403;-69
2022/10/15 11:37:06;;;;;;;1.67;1.05;;;;;;;16.53;55.21;100221.19;5027511;28;21279;-70
2022/10/15 11:39:49;;;;;;;1.85;1.00;;;;;;;16.55;55.35;100218.25;5032168;28;20087;-70
2022/10/15 11:42:24;;;;;;;2.05;1.10;;;;;;;16.54;55.52;100214.63;5028857;28;20488;-70
2022/10/15 11:45:10;;;;;;;1.60;0.95;;;;;;;16.56;55.19;100212.53;5031575;28;20037;-70
2022/10/15 11:47:50;;;;;;;1.35;0.85;;;;;;;16.57;55.32;100214.25;5030269;28;20049;-70
2022/10/15 11:50:32;;;;;;;;;;;;;;;16.28;56.27;100214.19;5030977;28;20438;-70
2022/10/15 11:53:36;;;;;;;1.33;0.88;;;;;;;16.52;55.58;100213.94;5023370;28;19976;-70